sensor_id;sensor_type;location;lat;lon;timestamp;pressure;altitude;pressure_sealevel;temperature;humidity
54666;BME280;40566;50.006;36.180;2022-12-17T00:05:17;100027.91;;;1.56;83.63
54666;BME280;40566;50.006;36.180;2022-12-17T00:10:36;100027.81;;;1.52;83.76
54666;BME280;40566;50.006;36.180;2022-12-17T00:15:55;100015.09;;;1.53;83.55
54666;BME280;40566;50.006;36.180;2022-12-17T00:21:15;100009.16;;;1.53;83.71
54666;BME280;40566;50.006;36.180;2022-12-17T00:26:34;100006.63;;;1.56;83.46
54666;BME280;40566;50.006;36.180;2022-12-17T00:31:53;100008.34;;;1.57;83.41
54666;BME280;40566;50.006;36.180;2022-12-17T00:37:12;100010.06;;;1.59;83.52
54666;BME280;40566;50.006;36.180;2022-12-17T00:42:33;99998.19;;;1.62;83.50
54666;BME280;40566;50.006;36.180;2022-12-17T00:47:53;99984.59;;;1.58;83.44
54666;BME280;40566;50.006;36.180;2022-12-17T00:53:12;99993.09;;;1.62;83.42
54666;BME280;40566;50.006;36.180;2022-12-17T00:58:31;99988.06;;;1.65;83.38
54666;BME280;40566;50.006;36.180;2022-12-17T01:03:51;99993.16;;;1.65;83.45
54666;BME280;40566;50.006;36.180;2022-12-17T01:09:10;99995.72;;;1.65;83.44
54666;BME280;40566;50.006;36.180;2022-12-17T01:14:29;99991.47;;;1.67;83.60
54666;BME280;40566;50.006;36.180;2022-12-17T01:19:49;99980.50;;;1.72;83.28
54666;BME280;40566;50.006;36.180;2022-12-17T01:25:08;99984.78;;;1.76;83.39
54666;BME280;40566;50.006;36.180;2022-12-17T01:30:27;99978.84;;;1.77;83.15
54666;BME280;40566;50.006;36.180;2022-12-17T01:35:47;99977.16;;;1.78;83.25
54666;BME280;40566;50.006;36.180;2022-12-17T01:41:07;99967.81;;;1.78;83.25
54666;BME280;40566;50.006;36.180;2022-12-17T01:46:29;99963.53;;;1.77;83.15
54666;BME280;40566;50.006;36.180;2022-12-17T01:52:04;99972.88;;;1.75;83.31
54666;BME280;40566;50.006;36.180;2022-12-17T01:57:24;99963.63;;;1.82;83.35
54666;BME280;40566;50.006;36.180;2022-12-17T02:02:44;99950.06;;;1.86;83.34
54666;BME280;40566;50.006;36.180;2022-12-17T02:08:16;99926.25;;;1.87;83.27
54666;BME280;40566;50.006;36.180;2022-12-17T02:13:43;99915.22;;;1.88;83.18
54666;BME280;40566;50.006;36.180;2022-12-17T02:25:21;99923.75;;;1.90;83.08
54666;BME280;40566;50.006;36.180;2022-12-17T02:30:44;99913.53;;;1.90;83.09
54666;BME280;40566;50.006;36.180;2022-12-17T02:36:05;99919.53;;;1.94;83.22
54666;BME280;40566;50.006;36.180;2022-12-17T02:41:29;99927.22;;;1.98;83.16
54666;BME280;40566;50.006;36.180;2022-12-17T02:46:51;99936.56;;;1.96;83.34
54666;BME280;40566;50.006;36.180;2022-12-17T02:52:12;99929.78;;;1.98;83.07
54666;BME280;40566;50.006;36.180;2022-12-17T02:57:33;99930.69;;;2.04;83.13
54666;BME280;40566;50.006;36.180;2022-12-17T03:02:52;99933.22;;;2.05;82.97
54666;BME280;40566;50.006;36.180;2022-12-17T03:08:12;99934.09;;;2.07;83.27
54666;BME280;40566;50.006;36.180;2022-12-17T03:13:31;99938.41;;;2.10;83.13
54666;BME280;40566;50.006;36.180;2022-12-17T03:18:50;99933.28;;;2.10;83.07
54666;BME280;40566;50.006;36.180;2022-12-17T03:24:10;99931.59;;;2.12;83.06
54666;BME280;40566;50.006;36.180;2022-12-17T03:29:29;99929.06;;;2.15;83.01
54666;BME280;40566;50.006;36.180;2022-12-17T03:34:48;99935.03;;;2.15;83.09
54666;BME280;40566;50.006;36.180;2022-12-17T03:40:08;99923.16;;;2.21;82.97
54666;BME280;40566;50.006;36.180;2022-12-17T03:45:27;99928.25;;;2.19;82.95
54666;BME280;40566;50.006;36.180;2022-12-17T03:50:47;99935.91;;;2.19;83.04
54666;BME280;40566;50.006;36.180;2022-12-17T03:56:06;99926.59;;;2.23;83.01
54666;BME280;40566;50.006;36.180;2022-12-17T04:01:25;99913.81;;;2.21;82.94
54666;BME280;40566;50.006;36.180;2022-12-17T04:06:44;99912.94;;;2.19;83.18
54666;BME280;40566;50.006;36.180;2022-12-17T04:12:04;99902.72;;;2.19;83.22
54666;BME280;40566;50.006;36.180;2022-12-17T04:17:23;99901.03;;;2.18;83.15
54666;BME280;40566;50.006;36.180;2022-12-17T04:22:42;99912.13;;;2.20;83.36
54666;BME280;40566;50.006;36.180;2022-12-17T04:28:02;99913.03;;;2.25;83.33
54666;BME280;40566;50.006;36.180;2022-12-17T04:33:21;99911.34;;;2.30;83.09
54666;BME280;40566;50.006;36.180;2022-12-17T04:38:40;99916.47;;;2.32;83.08
54666;BME280;40566;50.006;36.180;2022-12-17T04:44:00;99919.03;;;2.33;83.15
54666;BME280;40566;50.006;36.180;2022-12-17T04:49:19;99919.91;;;2.35;82.97
54666;BME280;40566;50.006;36.180;2022-12-17T04:54:38;99928.38;;;2.34;82.99
54666;BME280;40566;50.006;36.180;2022-12-17T04:59:57;99934.34;;;2.33;83.19
54666;BME280;40566;50.006;36.180;2022-12-17T05:05:17;99937.78;;;2.38;83.25
54666;BME280;40566;50.006;36.180;2022-12-17T05:10:36;99947.22;;;2.46;82.97
54666;BME280;40566;50.006;36.180;2022-12-17T05:15:56;99936.16;;;2.48;82.75
54666;BME280;40566;50.006;36.180;2022-12-17T05:21:15;99925.09;;;2.46;82.89
54666;BME280;40566;50.006;36.180;2022-12-17T05:26:34;99939.56;;;2.47;83.02
54666;BME280;40566;50.006;36.180;2022-12-17T05:31:54;99942.97;;;2.48;83.08
54666;BME280;40566;50.006;36.180;2022-12-17T05:37:13;99931.91;;;2.50;82.98
54666;BME280;40566;50.006;36.180;2022-12-17T05:42:32;99931.97;;;2.53;82.94
54666;BME280;40566;50.006;36.180;2022-12-17T05:47:56;99926.03;;;2.59;82.99
54666;BME280;40566;50.006;36.180;2022-12-17T05:53:15;99930.28;;;2.60;83.11
54666;BME280;40566;50.006;36.180;2022-12-17T05:58:34;99929.50;;;2.63;82.99
54666;BME280;40566;50.006;36.180;2022-12-17T06:03:53;99930.34;;;2.65;83.09
54666;BME280;40566;50.006;36.180;2022-12-17T06:09:13;99926.94;;;2.66;82.90
54666;BME280;40566;50.006;36.180;2022-12-17T06:14:32;99935.47;;;2.69;83.09
54666;BME280;40566;50.006;36.180;2022-12-17T06:19:51;99948.28;;;2.74;82.91
54666;BME280;40566;50.006;36.180;2022-12-17T06:25:11;99940.66;;;2.80;82.99
54666;BME280;40566;50.006;36.180;2022-12-17T06:30:30;99938.09;;;2.78;83.05
54666;BME280;40566;50.006;36.180;2022-12-17T06:35:51;99937.31;;;2.87;82.94
54666;BME280;40566;50.006;36.180;2022-12-17T06:41:10;99926.25;;;2.87;82.86
54666;BME280;40566;50.006;36.180;2022-12-17T06:46:30;99947.53;;;2.87;83.07
54666;BME280;40566;50.006;36.180;2022-12-17T06:51:49;99935.66;;;2.95;82.87
54666;BME280;40566;50.006;36.180;2022-12-17T06:57:08;99937.41;;;3.04;82.64
54666;BME280;40566;50.006;36.180;2022-12-17T07:02:28;99945.94;;;3.09;82.55
54666;BME280;40566;50.006;36.180;2022-12-17T07:07:54;99940.00;;;3.13;82.76
54666;BME280;40566;50.006;36.180;2022-12-17T07:13:14;99945.97;;;3.11;82.75
54666;BME280;40566;50.006;36.180;2022-12-17T07:18:33;99951.97;;;3.14;82.93
54666;BME280;40566;50.006;36.180;2022-12-17T07:23:52;99942.56;;;3.15;82.94
54666;BME280;40566;50.006;36.180;2022-12-17T07:29:11;99948.56;;;3.18;82.96
54666;BME280;40566;50.006;36.180;2022-12-17T07:34:31;99930.72;;;3.26;82.78
54666;BME280;40566;50.006;36.180;2022-12-17T07:39:50;99929.91;;;3.32;82.71
54666;BME280;40566;50.006;36.180;2022-12-17T07:45:09;99923.97;;;3.41;82.34
54666;BME280;40566;50.006;36.180;2022-12-17T07:50:28;99917.16;;;3.43;82.39
54666;BME280;40566;50.006;36.180;2022-12-17T07:55:48;99924.84;;;3.49;82.54
54666;BME280;40566;50.006;36.180;2022-12-17T08:01:07;99924.88;;;3.56;82.44
54666;BME280;40566;50.006;36.180;2022-12-17T08:06:26;99916.34;;;3.61;82.31
54666;BME280;40566;50.006;36.180;2022-12-17T08:11:45;99920.63;;;3.66;82.24
54666;BME280;40566;50.006;36.180;2022-12-17T08:17:05;99912.94;;;3.65;82.33
54666;BME280;40566;50.006;36.180;2022-12-17T08:22:24;99880.56;;;3.67;82.33
54666;BME280;40566;50.006;36.180;2022-12-17T08:27:44;99868.63;;;3.69;82.14
54666;BME280;40566;50.006;36.180;2022-12-17T08:33:04;99851.59;;;3.77;81.85
54666;BME280;40566;50.006;36.180;2022-12-17T08:38:23;99840.50;;;3.78;81.97
54666;BME280;40566;50.006;36.180;2022-12-17T08:43:42;99817.50;;;3.81;82.02
54666;BME280;40566;50.006;36.180;2022-12-17T08:49:02;99814.06;;;3.82;81.95
54666;BME280;40566;50.006;36.180;2022-12-17T08:54:21;99826.03;;;3.89;82.08
54666;BME280;40566;50.006;36.180;2022-12-17T08:59:40;99820.91;;;3.98;81.84
54666;BME280;40566;50.006;36.180;2022-12-17T09:04:59;99824.31;;;4.04;81.81
54666;BME280;40566;50.006;36.180;2022-12-17T09:10:19;99823.47;;;4.00;82.04
54666;BME280;40566;50.006;36.180;2022-12-17T09:15:37;99821.75;;;4.02;82.16
54666;BME280;40566;50.006;36.180;2022-12-17T09:20:57;99824.31;;;4.10;81.91
54666;BME280;40566;50.006;36.180;2022-12-17T09:26:16;99820.91;;;4.08;81.95
54666;BME280;40566;50.006;36.180;2022-12-17T09:31:36;99809.81;;;4.10;82.04
54666;BME280;40566;50.006;36.180;2022-12-17T09:36:55;99798.72;;;4.13;82.21
54666;BME280;40566;50.006;36.180;2022-12-17T09:42:40;99800.44;;;4.17;82.19
54666;BME280;40566;50.006;36.180;2022-12-17T09:53:36;99781.59;;;4.38;82.27
54666;BME280;40566;50.006;36.180;2022-12-17T09:58:57;99776.50;;;4.43;82.07
54666;BME280;40566;50.006;36.180;2022-12-17T10:04:20;99767.97;;;4.36;82.40
54666;BME280;40566;50.006;36.180;2022-12-17T10:09:43;99765.41;;;4.36;82.64
54666;BME280;40566;50.006;36.180;2022-12-17T10:15:04;99768.81;;;4.30;83.02
54666;BME280;40566;50.006;36.180;2022-12-17T10:25:52;99734.66;;;4.37;83.06
54666;BME280;40566;50.006;36.180;2022-12-17T10:31:19;99740.63;;;4.40;82.73
54666;BME280;40566;50.006;36.180;2022-12-17T10:36:47;99731.25;;;4.42;83.08
54666;BME280;40566;50.006;36.180;2022-12-17T10:42:23;99722.69;;;4.47;83.15
54666;BME280;40566;50.006;36.180;2022-12-17T10:47:42;99719.22;;;4.56;83.12
54666;BME280;40566;50.006;36.180;2022-12-17T10:53:03;99717.50;;;4.60;83.09
54666;BME280;40566;50.006;36.180;2022-12-17T10:58:28;99706.44;;;4.62;83.07
54666;BME280;40566;50.006;36.180;2022-12-17T11:09:26;99702.13;;;4.67;83.18
54666;BME280;40566;50.006;36.180;2022-12-17T11:14:51;99688.44;;;4.71;83.15
54666;BME280;40566;50.006;36.180;2022-12-17T11:20:22;99703.81;;;4.74;83.07
54666;BME280;40566;50.006;36.180;2022-12-17T11:25:55;99683.31;;;4.74;83.18
54666;BME280;40566;50.006;36.180;2022-12-17T11:37:19;99681.53;;;4.80;83.20
54666;BME280;40566;50.006;36.180;2022-12-17T11:42:43;99677.25;;;4.82;83.49
54666;BME280;40566;50.006;36.180;2022-12-17T11:48:07;99683.28;;;4.79;83.48
54666;BME280;40566;50.006;36.180;2022-12-17T12:04:57;99690.91;;;4.84;83.63
54666;BME280;40566;50.006;36.180;2022-12-17T12:10:29;99670.41;;;4.84;83.59
54666;BME280;40566;50.006;36.180;2022-12-17T12:16:17;99675.53;;;4.85;83.73
54666;BME280;40566;50.006;36.180;2022-12-17T12:21:39;99665.28;;;4.84;83.63
54666;BME280;40566;50.006;36.180;2022-12-17T12:27:25;99657.59;;;4.84;83.71
54666;BME280;40566;50.006;36.180;2022-12-17T12:33:30;99642.22;;;4.90;83.67
54666;BME280;40566;50.006;36.180;2022-12-17T12:38:34;99639.63;;;4.94;83.80
54666;BME280;40566;50.006;36.180;2022-12-17T12:43:58;99625.97;;;4.94;83.77
54666;BME280;40566;50.006;36.180;2022-12-17T12:49:53;99602.88;;;4.94;84.17
54666;BME280;40566;50.006;36.180;2022-12-17T12:55:16;99619.94;;;4.98;84.31
54666;BME280;40566;50.006;36.180;2022-12-17T13:06:06;99674.53;;;5.11;84.47
54666;BME280;40566;50.006;36.180;2022-12-17T13:11:35;99664.28;;;5.11;84.46
54666;BME280;40566;50.006;36.180;2022-12-17T13:21:46;99650.59;;;5.12;84.63
54666;BME280;40566;50.006;36.180;2022-12-17T13:26:47;99644.59;;;5.18;84.43
54666;BME280;40566;50.006;36.180;2022-12-17T13:32:00;99639.41;;;5.24;84.40
54666;BME280;40566;50.006;36.180;2022-12-17T13:42:17;99619.69;;;5.30;84.70
54666;BME280;40566;50.006;36.180;2022-12-17T13:47:32;99622.25;;;5.32;84.75
54666;BME280;40566;50.006;36.180;2022-12-17T13:52:34;99612.81;;;5.32;84.76
54666;BME280;40566;50.006;36.180;2022-12-17T13:57:36;99615.31;;;5.40;84.73
54666;BME280;40566;50.006;36.180;2022-12-17T14:02:37;99616.16;;;5.45;84.68
54666;BME280;40566;50.006;36.180;2022-12-17T14:07:38;99563.06;;;5.52;84.64
54666;BME280;40566;50.006;36.180;2022-12-17T14:12:40;99553.56;;;5.59;84.96
54666;BME280;40566;50.006;36.180;2022-12-17T14:17:43;99541.50;;;5.68;85.12
54666;BME280;40566;50.006;36.180;2022-12-17T14:22:47;99520.97;;;5.68;85.12
54666;BME280;40566;50.006;36.180;2022-12-17T14:28:00;99567.97;;;5.72;85.38
54666;BME280;40566;50.006;36.180;2022-12-17T14:33:01;99508.06;;;5.74;85.59
54666;BME280;40566;50.006;36.180;2022-12-17T14:38:01;99523.25;;;5.91;85.66
54666;BME280;40566;50.006;36.180;2022-12-17T14:43:03;99511.28;;;5.92;85.68
54666;BME280;40566;50.006;36.180;2022-12-17T14:48:04;99512.00;;;6.05;85.73
54666;BME280;40566;50.006;36.180;2022-12-17T14:53:26;99508.31;;;6.24;85.66
54666;BME280;40566;50.006;36.180;2022-12-17T14:58:26;99521.63;;;6.51;85.67
54666;BME280;40566;50.006;36.180;2022-12-17T15:03:30;99521.53;;;6.57;85.57
54666;BME280;40566;50.006;36.180;2022-12-17T15:08:39;99508.66;;;6.59;85.99
54666;BME280;40566;50.006;36.180;2022-12-17T15:13:40;99526.53;;;6.68;85.98
54666;BME280;40566;50.006;36.180;2022-12-17T15:18:40;99517.81;;;6.77;86.09
54666;BME280;40566;50.006;36.180;2022-12-17T15:23:42;99500.63;;;6.80;86.18
54666;BME280;40566;50.006;36.180;2022-12-17T15:28:44;99495.50;;;6.79;86.44
54666;BME280;40566;50.006;36.180;2022-12-17T15:33:45;99492.09;;;6.77;86.47
54666;BME280;40566;50.006;36.180;2022-12-17T15:38:45;99495.34;;;6.88;86.57
54666;BME280;40566;50.006;36.180;2022-12-17T15:43:46;99479.00;;;6.92;86.70
54666;BME280;40566;50.006;36.180;2022-12-17T15:48:46;99464.44;;;6.91;86.74
54666;BME280;40566;50.006;36.180;2022-12-17T15:53:47;99450.72;;;6.92;86.86
54666;BME280;40566;50.006;36.180;2022-12-17T15:58:48;99447.22;;;6.96;86.89
54666;BME280;40566;50.006;36.180;2022-12-17T16:03:50;99463.25;;;7.09;86.86
54666;BME280;40566;50.006;36.180;2022-12-17T16:08:51;99456.28;;;7.17;86.96
54666;BME280;40566;50.006;36.180;2022-12-17T16:13:55;99437.34;;;7.20;86.93
54666;BME280;40566;50.006;36.180;2022-12-17T16:18:56;99451.81;;;7.27;87.11
54666;BME280;40566;50.006;36.180;2022-12-17T16:23:56;99444.69;;;7.40;87.00
54666;BME280;40566;50.006;36.180;2022-12-17T16:28:57;99432.53;;;7.46;87.02
54666;BME280;40566;50.006;36.180;2022-12-17T16:33:58;99443.31;;;7.64;87.15
54666;BME280;40566;50.006;36.180;2022-12-17T16:38:58;99432.69;;;7.81;86.91
54666;BME280;40566;50.006;36.180;2022-12-17T16:43:59;99422.06;;;7.96;87.19
54666;BME280;40566;50.006;36.180;2022-12-17T16:49:11;99413.16;;;8.09;87.11
54666;BME280;40566;50.006;36.180;2022-12-17T16:54:15;99412.97;;;8.17;87.16
54666;BME280;40566;50.006;36.180;2022-12-17T16:59:16;99394.88;;;8.20;87.32
54666;BME280;40566;50.006;36.180;2022-12-17T17:04:19;99384.47;;;8.23;87.51
54666;BME280;40566;50.006;36.180;2022-12-17T17:09:21;99390.44;;;8.25;87.65
54666;BME280;40566;50.006;36.180;2022-12-17T17:14:22;99401.50;;;8.30;87.72
54666;BME280;40566;50.006;36.180;2022-12-17T17:19:23;99389.28;;;8.39;87.78
54666;BME280;40566;50.006;36.180;2022-12-17T17:24:23;99384.09;;;8.42;87.87
54666;BME280;40566;50.006;36.180;2022-12-17T17:29:25;99369.47;;;8.41;87.97
54666;BME280;40566;50.006;36.180;2022-12-17T17:34:26;99354.91;;;8.41;87.95
54666;BME280;40566;50.006;36.180;2022-12-17T17:39:27;99354.94;;;8.38;88.25
54666;BME280;40566;50.006;36.180;2022-12-17T17:44:31;99352.31;;;8.41;88.22
54666;BME280;40566;50.006;36.180;2022-12-17T17:49:31;99357.41;;;8.43;88.30
54666;BME280;40566;50.006;36.180;2022-12-17T17:54:32;99341.66;;;8.55;88.28
54666;BME280;40566;50.006;36.180;2022-12-17T17:59:32;99345.88;;;8.58;88.43
54666;BME280;40566;50.006;36.180;2022-12-17T18:04:33;99335.38;;;8.65;88.17
54666;BME280;40566;50.006;36.180;2022-12-17T18:09:33;99330.22;;;8.65;88.44
54666;BME280;40566;50.006;36.180;2022-12-17T18:14:34;99306.84;;;8.71;88.50
54666;BME280;40566;50.006;36.180;2022-12-17T18:19:35;99311.84;;;8.76;88.54
54666;BME280;40566;50.006;36.180;2022-12-17T18:24:35;99302.44;;;8.75;88.65
54666;BME280;40566;50.006;36.180;2022-12-17T18:29:36;99304.75;;;8.84;88.69
54666;BME280;40566;50.006;36.180;2022-12-17T18:34:36;99296.84;;;8.90;88.68
54666;BME280;40566;50.006;36.180;2022-12-17T18:39:37;99290.88;;;8.88;88.75
54666;BME280;40566;50.006;36.180;2022-12-17T18:44:40;99270.31;;;8.87;88.87
54666;BME280;40566;50.006;36.180;2022-12-17T18:49:40;99266.03;;;8.86;88.87
54666;BME280;40566;50.006;36.180;2022-12-17T18:54:41;99271.19;;;8.86;88.89
54666;BME280;40566;50.006;36.180;2022-12-17T18:59:42;99295.97;;;8.91;88.85
54666;BME280;40566;50.006;36.180;2022-12-17T19:04:42;99307.03;;;8.95;88.99
54666;BME280;40566;50.006;36.180;2022-12-17T19:09:43;99305.97;;;9.02;89.00
54666;BME280;40566;50.006;36.180;2022-12-17T19:14:43;99295.56;;;9.05;89.03
54666;BME280;40566;50.006;36.180;2022-12-17T19:19:44;99273.78;;;9.14;89.04
54666;BME280;40566;50.006;36.180;2022-12-17T19:24:44;99278.91;;;9.16;89.01
54666;BME280;40566;50.006;36.180;2022-12-17T19:29:45;99292.44;;;9.24;89.23
54666;BME280;40566;50.006;36.180;2022-12-17T19:34:46;99300.94;;;9.27;89.25
54666;BME280;40566;50.006;36.180;2022-12-17T19:39:46;99310.44;;;9.27;89.35
54666;BME280;40566;50.006;36.180;2022-12-17T19:44:47;99335.31;;;9.28;89.49
54666;BME280;40566;50.006;36.180;2022-12-17T19:49:48;99319.75;;;9.31;89.47
54666;BME280;40566;50.006;36.180;2022-12-17T19:54:49;99281.94;;;9.30;89.46
54666;BME280;40566;50.006;36.180;2022-12-17T19:59:49;99341.16;;;9.35;89.55
54666;BME280;40566;50.006;36.180;2022-12-17T20:04:50;99323.78;;;9.40;89.59
54666;BME280;40566;50.006;36.180;2022-12-17T20:09:51;99046.81;;;9.38;89.32
54666;BME280;40566;50.006;36.180;2022-12-17T20:14:53;99096.91;;;9.32;89.71
54666;BME280;40566;50.006;36.180;2022-12-17T20:19:54;99342.44;;;9.49;90.00
54666;BME280;40566;50.006;36.180;2022-12-17T20:24:55;99312.41;;;9.47;90.03
54666;BME280;40566;50.006;36.180;2022-12-17T20:29:56;99314.91;;;9.50;90.18
54666;BME280;40566;50.006;36.180;2022-12-17T20:34:56;99303.72;;;9.49;90.30
54666;BME280;40566;50.006;36.180;2022-12-17T20:39:57;99259.94;;;9.46;90.34
54666;BME280;40566;50.006;36.180;2022-12-17T20:44:59;99247.03;;;9.46;90.49
54666;BME280;40566;50.006;36.180;2022-12-17T20:49:59;99278.03;;;9.45;90.62
54666;BME280;40566;50.006;36.180;2022-12-17T20:55:00;99283.16;;;9.46;90.62
54666;BME280;40566;50.006;36.180;2022-12-17T21:00:01;99300.25;;;9.50;90.68
54666;BME280;40566;50.006;36.180;2022-12-17T21:05:02;99322.59;;;9.51;90.88
54666;BME280;40566;50.006;36.180;2022-12-17T21:10:03;99310.38;;;9.57;90.88
54666;BME280;40566;50.006;36.180;2022-12-17T21:15:04;99258.75;;;9.57;90.93
54666;BME280;40566;50.006;36.180;2022-12-17T21:20:05;99223.56;;;9.54;90.91
54666;BME280;40566;50.006;36.180;2022-12-17T21:25:06;99270.91;;;9.53;90.94
54666;BME280;40566;50.006;36.180;2022-12-17T21:30:07;99272.53;;;9.56;91.08
54666;BME280;40566;50.006;36.180;2022-12-17T21:35:08;99239.94;;;9.53;91.17
54666;BME280;40566;50.006;36.180;2022-12-17T21:40:09;99272.69;;;9.51;91.22
54666;BME280;40566;50.006;36.180;2022-12-17T21:45:10;99275.28;;;9.51;91.21
54666;BME280;40566;50.006;36.180;2022-12-17T21:50:10;99264.94;;;9.51;91.26
54666;BME280;40566;50.006;36.180;2022-12-17T21:55:11;99285.59;;;9.51;91.28
54666;BME280;40566;50.006;36.180;2022-12-17T22:00:12;99276.22;;;9.48;91.37
54666;BME280;40566;50.006;36.180;2022-12-17T22:05:13;99312.47;;;9.44;91.39
54666;BME280;40566;50.006;36.180;2022-12-17T22:10:13;99311.56;;;9.46;91.61
54666;BME280;40566;50.006;36.180;2022-12-17T22:15:14;99318.41;;;9.47;91.59
54666;BME280;40566;50.006;36.180;2022-12-17T22:20:15;99301.28;;;9.45;91.56
54666;BME280;40566;50.006;36.180;2022-12-17T22:25:17;99299.50;;;9.47;91.60
54666;BME280;40566;50.006;36.180;2022-12-17T22:30:18;99318.47;;;9.46;91.59
54666;BME280;40566;50.006;36.180;2022-12-17T22:35:39;99311.59;;;9.45;91.49
54666;BME280;40566;50.006;36.180;2022-12-17T22:40:42;99302.16;;;9.44;91.55
54666;BME280;40566;50.006;36.180;2022-12-17T22:45:42;99305.84;;;9.37;91.69
54666;BME280;40566;50.006;36.180;2022-12-17T22:50:43;99301.63;;;9.34;91.74
54666;BME280;40566;50.006;36.180;2022-12-17T22:55:43;99315.41;;;9.33;91.76
54666;BME280;40566;50.006;36.180;2022-12-17T23:00:44;99319.75;;;9.31;91.89
54666;BME280;40566;50.006;36.180;2022-12-17T23:05:45;99325.00;;;9.28;91.93
54666;BME280;40566;50.006;36.180;2022-12-17T23:10:45;99325.97;;;9.24;91.80
54666;BME280;40566;50.006;36.180;2022-12-17T23:15:46;99323.50;;;9.21;91.98
54666;BME280;40566;50.006;36.180;2022-12-17T23:20:46;99328.63;;;9.22;92.04
54666;BME280;40566;50.006;36.180;2022-12-17T23:25:47;99338.22;;;9.17;91.71
54666;BME280;40566;50.006;36.180;2022-12-17T23:30:47;99338.22;;;9.17;91.94
54666;BME280;40566;50.006;36.180;2022-12-17T23:35:48;99345.16;;;9.15;92.14
54666;BME280;40566;50.006;36.180;2022-12-17T23:40:49;99347.03;;;9.10;92.02
54666;BME280;40566;50.006;36.180;2022-12-17T23:45:50;99358.28;;;9.07;92.04
54666;BME280;40566;50.006;36.180;2022-12-17T23:50:50;99378.13;;;9.05;92.04
54666;BME280;40566;50.006;36.180;2022-12-17T23:55:51;99409.94;;;9.04;92.17
